Time;durP1;ratioP1;P1;durP2;ratioP2;P2;SDS_P1;SDS_P2;PMS_P1;PMS_P2;Temp;Humidity;BMP_temperature;BMP_pressure;BME280_temperature;BME280_humidity;BME280_pressure;Samples;Min_cycle;Max_cycle;Signal;HPM_P1;HPM_P2
2023/12/06 00:02:25;;;;;;;0.50;0.30;;;;;;;;;;4996681;28;20026;-80
2023/12/06 00:04:52;;;;;;;0.50;0.40;;;;;;;;;;5000176;28;20106;-79
2023/12/06 00:07:18;;;;;;;1.20;0.63;;;;;;;;;;5000076;28;20034;-79
2023/12/06 00:09:43;;;;;;;0.50;0.38;;;;;;;;;;5001634;28;20030;-79
2023/12/06 00:12:09;;;;;;;0.68;0.32;;;;;;;;;;5002408;28;20041;-79
2023/12/06 00:14:35;;;;;;;0.40;0.30;;;;;;;;;;4998725;28;20034;-79
2023/12/06 00:17:01;;;;;;;0.82;0.60;;;;;;;;;;4997283;28;20042;-79
2023/12/06 00:19:27;;;;;;;0.50;0.40;;;;;;;;;;5000330;28;20042;-79
2023/12/06 00:21:53;;;;;;;1.08;0.60;;;;;;;;;;4999404;28;20498;-80
2023/12/06 00:24:19;;;;;;;1.45;0.47;;;;;;;;;;5001671;28;20565;-79
2023/12/06 00:26:46;;;;;;;0.73;0.25;;;;;;;;;;4998057;28;20022;-79
2023/12/06 00:29:12;;;;;;;0.35;0.35;;;;;;;;;;4998270;28;20039;-79
2023/12/06 00:31:38;;;;;;;0.20;0.20;;;;;;;;;;4999291;28;20026;-79
2023/12/06 00:34:04;;;;;;;1.30;0.35;;;;;;;;;;4997660;28;20042;-79
2023/12/06 00:36:30;;;;;;;2.28;0.40;;;;;;;;;;4996539;28;20038;-80
2023/12/06 00:38:56;;;;;;;0.95;0.50;;;;;;;;;;5000721;28;20034;-79
2023/12/06 00:41:24;;;;;;;0.77;0.40;;;;;;;;;;5001588;28;20026;-79
2023/12/06 00:43:51;;;;;;;0.93;0.60;;;;;;;;;;4996946;28;20022;-79
2023/12/06 00:46:17;;;;;;;0.90;0.60;;;;;;;;;;4997035;28;20033;-79
2023/12/06 00:48:43;;;;;;;0.88;0.65;;;;;;;;;;5000832;28;20037;-79
2023/12/06 00:51:09;;;;;;;0.55;0.30;;;;;;;;;;4980675;28;20034;-78
2023/12/06 00:53:35;;;;;;;1.02;0.32;;;;;;;;;;5000627;28;20049;-78
2023/12/06 00:56:01;;;;;;;0.85;0.57;;;;;;;;;;4997670;28;20039;-79
2023/12/06 00:58:27;;;;;;;0.22;0.22;;;;;;;;;;4997183;28;20157;-79
2023/12/06 01:00:53;;;;;;;0.20;0.20;;;;;;;;;;4998667;28;20054;-79
2023/12/06 01:03:19;;;;;;;0.82;0.45;;;;;;;;;;5001449;28;20131;-79
2023/12/06 01:05:45;;;;;;;0.70;0.35;;;;;;;;;;4997975;28;20077;-79
2023/12/06 01:08:11;;;;;;;1.27;0.52;;;;;;;;;;4996739;28;20477;-79
2023/12/06 01:10:37;;;;;;;0.45;0.40;;;;;;;;;;4994651;28;20044;-78
2023/12/06 01:13:03;;;;;;;0.20;0.20;;;;;;;;;;4989505;28;20034;-77
2023/12/06 01:15:29;;;;;;;0.50;0.40;;;;;;;;;;4992449;28;20506;-78
2023/12/06 01:17:55;;;;;;;0.47;0.35;;;;;;;;;;4996409;28;20042;-78
2023/12/06 01:20:22;;;;;;;1.17;0.50;;;;;;;;;;4995811;28;20026;-78
2023/12/06 01:22:48;;;;;;;1.05;0.50;;;;;;;;;;4996012;28;20038;-78
2023/12/06 01:25:14;;;;;;;1.00;0.50;;;;;;;;;;4978605;28;20033;-78
2023/12/06 01:27:40;;;;;;;0.50;0.30;;;;;;;;;;4994740;28;20067;-78
2023/12/06 01:30:06;;;;;;;0.88;0.50;;;;;;;;;;4989694;28;20037;-78
2023/12/06 01:32:32;;;;;;;1.05;0.60;;;;;;;;;;5003181;28;20090;-78
2023/12/06 01:34:58;;;;;;;0.85;0.40;;;;;;;;;;5006683;28;20037;-78
2023/12/06 01:37:24;;;;;;;0.80;0.52;;;;;;;;;;5003344;28;20018;-78
2023/12/06 01:39:50;;;;;;;1.38;0.63;;;;;;;;;;5003563;28;20033;-79
2023/12/06 01:42:16;;;;;;;0.93;0.57;;;;;;;;;;5006333;28;20026;-79
2023/12/06 01:44:42;;;;;;;0.55;0.40;;;;;;;;;;5003368;28;20133;-80
2023/12/06 01:47:08;;;;;;;0.50;0.50;;;;;;;;;;5005258;28;20031;-80
2023/12/06 01:49:34;;;;;;;1.27;0.50;;;;;;;;;;5002530;28;20078;-79
2023/12/06 01:52:00;;;;;;;1.13;0.52;;;;;;;;;;5006912;28;20058;-79
2023/12/06 01:54:26;;;;;;;1.15;0.52;;;;;;;;;;5006514;28;20030;-79
2023/12/06 01:56:53;;;;;;;1.75;0.98;;;;;;;;;;5006733;28;20050;-79
2023/12/06 01:59:20;;;;;;;0.93;0.60;;;;;;;;;;4999106;28;20027;-79
2023/12/06 02:01:46;;;;;;;1.10;0.50;;;;;;;;;;4999147;28;20038;-79
2023/12/06 02:04:12;;;;;;;0.60;0.40;;;;;;;;;;4983281;28;20074;-80
2023/12/06 02:06:39;;;;;;;0.70;0.40;;;;;;;;;;4995095;28;20069;-79
2023/12/06 02:09:06;;;;;;;0.90;0.50;;;3.90;99.90;;;;;;5003068;28;20034;-79
2023/12/06 02:11:32;;;;;;;1.00;0.45;;;;;;;;;;4997655;28;20041;-79
2023/12/06 02:13:58;;;;;;;0.93;0.47;;;;;;;;;;5002678;28;20031;-79
2023/12/06 02:16:24;;;;;;;0.93;0.60;;;;;;;;;;5001237;28;20025;-79
2023/12/06 02:18:50;;;;;;;1.10;0.52;;;;;;;;;;4986288;28;20030;-79
2023/12/06 02:21:16;;;;;;;1.05;0.77;;;;;;;;;;5002696;28;20066;-79
2023/12/06 02:23:43;;;;;;;1.00;0.70;;;;;;;;;;4997272;28;20515;-80
2023/12/06 02:26:09;;;;;;;0.65;0.50;;;;;;;;;;5003252;28;20027;-80
2023/12/06 02:28:35;;;;;;;1.10;0.60;;;;;;;;;;5003844;28;20044;-80
2023/12/06 02:31:01;;;;;;;1.15;0.73;;;;;;;;;;4999856;28;20039;-79
2023/12/06 02:33:27;;;;;;;0.57;0.40;;;;;;;;;;5005912;28;20029;-79
2023/12/06 02:35:57;;;;;;;0.40;0.40;;;;;;;;;;4996494;28;20125;-80
2023/12/06 02:38:23;;;;;;;0.93;0.50;;;;;;;;;;5002133;28;20053;-79
2023/12/06 02:40:50;;;;;;;0.75;0.40;;;4.20;99.90;;;;;;5000740;28;20099;-79
2023/12/06 02:43:17;;;;;;;0.47;0.43;;;;;;;;;;5003451;28;20026;-79
2023/12/06 02:45:43;;;;;;;0.57;0.43;;;4.20;99.90;;;;;;5001860;28;20068;-79
2023/12/06 02:48:09;;;;;;;0.95;0.57;;;;;;;;;;5001675;28;20030;-79
2023/12/06 02:50:35;;;;;;;0.77;0.40;;;;;;;;;;5005857;28;20094;-79
2023/12/06 02:53:01;;;;;;;0.85;0.60;;;;;;;;;;5003371;28;20033;-79
2023/12/06 02:55:27;;;;;;;0.80;0.40;;;;;;;;;;5001563;28;20054;-80
2023/12/06 02:57:53;;;;;;;0.80;0.60;;;;;;;;;;4999697;28;20034;-79
2023/12/06 03:00:19;;;;;;;0.75;0.52;;;;;;;;;;4997680;28;20038;-80
2023/12/06 03:02:45;;;;;;;0.45;0.30;;;;;;;;;;5004315;28;20093;-79
2023/12/06 03:05:11;;;;;;;1.48;0.70;;;;;;;;;;4987163;28;20034;-79
2023/12/06 03:07:37;;;;;;;1.23;0.55;;;;;;;;;;4984529;28;20073;-80
2023/12/06 03:10:03;;;;;;;0.93;0.63;;;;;;;;;;5004167;28;20038;-80
2023/12/06 03:12:29;;;;;;;0.35;0.30;;;;;;;;;;5000960;28;20232;-79
2023/12/06 03:14:55;;;;;;;0.35;0.30;;;;;;;;;;4996391;28;20057;-79
2023/12/06 03:17:21;;;;;;;1.15;0.55;;;;;;;;;;4998497;28;20029;-80
2023/12/06 03:19:47;;;;;;;0.47;0.30;;;;;;;;;;4996615;28;20045;-78
2023/12/06 03:22:13;;;;;;;0.73;0.30;;;;;;;;;;5000395;28;20034;-79
2023/12/06 03:24:39;;;;;;;1.00;0.57;;;;;;;;;;4995518;28;20072;-80
2023/12/06 03:27:05;;;;;;;0.60;0.50;;;;;;;;;;5000636;28;20113;-80
2023/12/06 03:29:31;;;;;;;0.73;0.30;;;;;;;;;;4998061;28;20229;-80
2023/12/06 03:31:57;;;;;;;0.70;0.50;;;;;;;;;;5000771;28;20045;-79
2023/12/06 03:34:23;;;;;;;1.48;0.55;;;;;;;;;;4999493;28;20048;-79
2023/12/06 03:36:49;;;;;;;1.45;0.50;;;;;;;;;;4995018;28;20015;-79
2023/12/06 03:39:16;;;;;;;0.80;0.70;;;;;;;;;;4998873;28;20022;-79
2023/12/06 03:41:42;;;;;;;1.48;0.73;;;;;;;;;;5001196;28;20429;-79
2023/12/06 03:44:08;;;;;;;4.65;1.67;;;;;;;;;;5002408;28;20045;-80
2023/12/06 03:46:34;;;;;;;3.45;1.13;;;;;;;;;;5000558;28;20052;-80
2023/12/06 03:49:01;;;;;;;2.97;1.35;;;;;;;;;;4997666;28;20027;-80
2023/12/06 03:51:28;;;;;;;3.30;1.40;;;;;;;;;;5001405;28;20038;-80
2023/12/06 03:53:55;;;;;;;8.82;3.05;;;;;;;;;;4998190;28;20026;-80
2023/12/06 03:56:21;;;;;;;1.05;0.73;;;;;;;;;;4999776;28;20038;-79
2023/12/06 03:58:47;;;;;;;1.55;0.77;;;;;;;;;;5000687;28;20030;-80
2023/12/06 04:01:13;;;;;;;7.88;3.05;;;;;;;;;;4999659;28;20054;-79
2023/12/06 04:03:41;;;;;;;7.85;2.95;;;;;;;;;;5000115;28;20077;-80
2023/12/06 04:06:07;;;;;;;3.15;1.70;;;;;;;;;;4995055;28;20023;-79
2023/12/06 04:08:33;;;;;;;1.85;1.15;;;;;;;;;;4999332;28;20034;-80
2023/12/06 04:10:59;;;;;;;4.60;1.25;;;;;;;;;;4995325;28;20058;-79
2023/12/06 04:13:25;;;;;;;2.53;0.98;;;;;;;;;;4999229;28;20022;-79
2023/12/06 04:15:52;;;;;;;0.65;0.35;;;;;;;;;;4994463;28;20030;-80
2023/12/06 04:18:18;;;;;;;1.17;0.60;;;;;;;;;;4997907;28;20030;-79
2023/12/06 04:20:44;;;;;;;1.25;0.80;;;;;;;;;;4994805;28;20066;-79
2023/12/06 04:23:10;;;;;;;0.63;0.60;;;;;;;;;;4999425;28;20053;-79
2023/12/06 04:25:36;;;;;;;0.40;0.30;;;;;;;;;;4998744;28;20027;-80
2023/12/06 04:28:02;;;;;;;0.65;0.50;;;;;;;;;;4997490;28;20032;-79
2023/12/06 04:30:28;;;;;;;1.30;0.68;;;;;;;;;;4997306;28;20109;-79
2023/12/06 04:32:54;;;;;;;0.70;0.70;;;;;;;;;;4996076;28;20034;-80
2023/12/06 04:35:20;;;;;;;2.10;0.77;;;;;;;;;;4995960;28;20026;-79
2023/12/06 04:37:46;;;;;;;1.55;0.60;;;;;;;;;;4997779;28;20042;-80
2023/12/06 04:40:13;;;;;;;0.88;0.40;;;;;;;;;;5000826;28;20037;-80
2023/12/06 04:42:38;;;;;;;0.90;0.50;;;;;;;;;;5002426;28;20088;-79
2023/12/06 04:45:05;;;;;;;0.55;0.32;;;;;;;;;;5000797;28;20082;-80
2023/12/06 04:47:31;;;;;;;0.45;0.35;;;;;;;;;;5000366;28;20026;-80
2023/12/06 04:49:57;;;;;;;0.40;0.30;;;;;;;;;;4993451;28;20019;-79
2023/12/06 04:52:24;;;;;;;0.52;0.30;;;;;;;;;;4991713;28;20038;-80
2023/12/06 04:54:50;;;;;;;0.50;0.35;;;;;;;;;;4989320;28;20046;-79
2023/12/06 04:57:16;;;;;;;1.75;0.20;;;;;;;;;;4987219;28;20041;-79
2023/12/06 04:59:42;;;;;;;0.52;0.40;;;;;;;;;;4986760;28;20054;-79
2023/12/06 05:02:08;;;;;;;0.65;0.40;;;;;;;;;;4987357;28;20045;-79
2023/12/06 05:04:34;;;;;;;5.72;2.03;;;;;;;;;;4980219;28;20587;-79
2023/12/06 05:07:00;;;;;;;0.43;0.40;;;;;;;;;;4979419;28;20156;-79
2023/12/06 05:09:27;;;;;;;1.85;0.77;;;;;;;;;;4991272;28;20037;-79
2023/12/06 05:11:53;;;;;;;0.47;0.32;;;;;;;;;;4994044;28;20474;-79
2023/12/06 05:14:19;;;;;;;0.82;0.52;;;;;;;;;;4991266;28;20030;-79
2023/12/06 05:16:45;;;;;;;0.30;0.30;;;;;;;;;;4990874;28;20147;-79
2023/12/06 05:19:11;;;;;;;0.80;0.50;;;;;;;;;;4985919;28;20029;-79
2023/12/06 05:21:37;;;;;;;0.70;0.40;;;;;;;;;;4993834;28;20045;-79
2023/12/06 05:24:03;;;;;;;0.55;0.40;;;;;;;;;;4988976;28;20109;-79
2023/12/06 05:26:29;;;;;;;0.57;0.38;;;;;;;;;;4984700;28;20902;-79
2023/12/06 05:28:55;;;;;;;0.80;0.40;;;;;;;;;;4984125;28;20117;-78
2023/12/06 05:31:21;;;;;;;0.95;0.50;;;;;;;;;;4982232;28;20562;-79
2023/12/06 05:33:48;;;;;;;0.93;0.50;;;;;;;;;;4986708;28;20221;-79
2023/12/06 05:36:14;;;;;;;3.17;0.20;;;;;;;;;;4980545;28;20018;-79
2023/12/06 05:38:40;;;;;;;1.30;0.55;;;;;;;;;;4981394;28;20026;-80
2023/12/06 05:41:06;;;;;;;1.27;0.60;;;;;;;;;;4979462;28;20049;-81
2023/12/06 05:43:32;;;;;;;0.68;0.38;;;;;;;;;;4988693;28;20031;-80
2023/12/06 05:45:58;;;;;;;4.20;1.45;;;;;;;;;;4996725;28;20138;-79
2023/12/06 05:48:24;;;;;;;4.53;1.60;;;;;;;;;;4992930;28;20116;-79
2023/12/06 05:50:50;;;;;;;3.53;1.70;;;;;;;;;;4991064;28;20335;-81
2023/12/06 05:53:16;;;;;;;4.78;1.88;;;;;;;;;;4990090;28;20133;-81
2023/12/06 05:55:42;;;;;;;4.25;2.08;;;;;;;;;;4995750;28;20788;-81
2023/12/06 05:58:08;;;;;;;5.78;2.47;;;;;;;;;;4996594;28;20492;-81
2023/12/06 06:00:35;;;;;;;6.07;2.58;;;;;;;;;;4996811;28;20078;-82
2023/12/06 06:03:01;;;;;;;5.43;2.38;;;;;;;;;;5002504;28;20022;-81
2023/12/06 06:05:27;;;;;;;1.95;1.23;;;;;;;;;;4998167;28;20041;-81
2023/12/06 06:07:54;;;;;;;4.93;1.70;;;;;;;;;;4996252;28;20090;-81
2023/12/06 06:10:20;;;;;;;4.68;2.08;;;;;;;;;;4988369;28;20023;-81
2023/12/06 06:12:46;;;;;;;5.07;2.17;;;;;;;;;;4993808;28;20062;-82
2023/12/06 06:15:12;;;;;;;4.90;1.80;;;;;;;;;;4995950;28;20597;-81
2023/12/06 06:17:38;;;;;;;2.25;1.23;;;;;;;;;;4999325;28;20037;-81
2023/12/06 06:20:05;;;;;;;2.63;1.10;;;;;;;;;;4997001;28;20494;-81
2023/12/06 06:22:31;;;;;;;1.25;0.60;;;;;;;;;;5001624;28;20026;-81
2023/12/06 06:24:57;;;;;;;4.40;1.38;;;;;;;;;;4998050;28;20177;-82
2023/12/06 06:27:23;;;;;;;6.43;2.60;;;;;;;;;;4992098;28;20030;-81
2023/12/06 06:29:49;;;;;;;3.80;2.15;;;;;;;;;;5001515;28;20030;-81
2023/12/06 06:32:15;;;;;;;3.83;1.98;;;;;;;;;;5000582;28;20413;-80
2023/12/06 06:34:41;;;;;;;7.32;3.50;;;;;;;;;;5002606;28;20034;-82
2023/12/06 06:37:08;;;;;;;3.47;1.88;;;;;;;;;;4991255;28;20026;-80
2023/12/06 06:39:34;;;;;;;2.53;1.65;;;;;;;;;;4999043;28;20035;-81
2023/12/06 06:42:00;;;;;;;2.92;2.03;;;;;;;;;;4999810;28;20026;-81
2023/12/06 06:44:29;;;;;;;4.40;2.40;;;;;;;;;;5001220;28;20030;-81
2023/12/06 06:46:55;;;;;;;2.15;1.75;;;;;;;;;;4984686;28;20034;-80
2023/12/06 06:49:21;;;;;;;1.58;1.25;;;;;;;;;;4997601;28;20045;-82
2023/12/06 06:51:47;;;;;;;3.33;2.13;;;;;;;;;;5002123;28;20089;-80
2023/12/06 06:54:13;;;;;;;4.40;2.95;;;;;;;;;;5001185;28;20030;-81
2023/12/06 06:56:39;;;;;;;5.15;2.65;;;;;;;;;;5001894;28;20041;-80
2023/12/06 06:59:05;;;;;;;5.78;2.95;;;;;;;;;;5000390;28;20035;-81
2023/12/06 07:01:31;;;;;;;3.88;2.20;;;;;;;;;;5003434;28;20052;-81
2023/12/06 07:03:57;;;;;;;4.78;3.17;;;;;;;;;;5004709;28;20037;-81
2023/12/06 07:06:23;;;;;;;3.65;2.40;;;;;;;;;;4996516;28;20031;-81
2023/12/06 07:08:49;;;;;;;3.67;2.58;;;;;;;;;;4999317;28;20018;-81
2023/12/06 07:11:16;;;;;;;2.65;1.77;;;;;;;;;;5002040;28;20041;-81
2023/12/06 07:13:42;;;;;;;4.60;2.95;;;;;;;;;;5001463;28;20030;-80
2023/12/06 07:16:10;;;;;;;5.78;2.97;;;;;;;;;;4989524;28;20489;-81
2023/12/06 07:18:36;;;;;;;4.35;2.67;;;;;;;;;;4986598;28;20030;-80
2023/12/06 07:21:03;;;;;;;5.93;2.30;;;;;;;;;;4997202;28;20034;-81
2023/12/06 07:23:29;;;;;;;6.90;3.97;;;;;;;;;;5000522;28;20041;-81
2023/12/06 07:25:55;;;;;;;4.80;2.50;;;;;;;;;;5002887;28;20018;-80
2023/12/06 07:28:21;;;;;;;5.43;3.20;;;;;;;;;;5001938;28;20334;-81
2023/12/06 07:30:47;;;;;;;7.78;3.00;;;;;;;;;;5000349;28;20332;-81
2023/12/06 07:33:13;;;;;;;6.13;3.85;;;;;;;;;;5002604;28;20054;-80
2023/12/06 07:35:40;;;;;;;3.72;2.63;;;;;;;;;;4999048;28;20029;-80
2023/12/06 07:38:09;;;;;;;12.25;3.65;;;;;;;;;;5001257;28;20023;-81
2023/12/06 07:40:35;;;;;;;6.18;3.70;;;;;;;;;;5002861;28;20204;-81
2023/12/06 07:43:01;;;;;;;5.35;3.53;;;;;;;;;;4996136;28;20042;-81
2023/12/06 07:45:27;;;;;;;7.30;3.83;;;;;;;;;;4997326;28;20019;-80
2023/12/06 07:47:53;;;;;;;6.00;3.25;;;;;;;;;;5001509;28;20041;-81
2023/12/06 07:50:22;;;;;;;5.03;3.17;;;;;;;;;;5009811;28;20050;-81
2023/12/06 07:52:50;;;;;;;6.90;3.15;;;;;;;;;;5003870;28;20481;-81
2023/12/06 07:55:16;;;;;;;5.75;3.65;;;;;;;;;;5005072;28;20063;-81
2023/12/06 07:57:42;;;;;;;12.52;3.17;;;;;;;;;;4999519;28;20457;-82
2023/12/06 08:00:11;;;;;;;8.93;5.03;;;;;;;;;;4985621;28;20050;-81
2023/12/06 08:02:39;;;;;;;6.88;4.28;;;;;;;;;;5000926;28;20034;-81
2023/12/06 08:05:06;;;;;;;7.85;4.35;;;;;;;;;;5004000;28;20034;-81
2023/12/06 08:07:32;;;;;;;5.95;3.38;;;;;;;;;;5001935;28;20034;-80
2023/12/06 08:09:58;;;;;;;5.68;3.60;;;;;;;;;;4979135;28;20023;-81
2023/12/06 08:12:24;;;;;;;6.50;3.85;;;;;;;;;;4998159;28;20034;-80
2023/12/06 08:14:50;;;;;;;7.78;4.68;;;;;;;;;;5002142;28;20061;-81
2023/12/06 08:17:16;;;;;;;5.70;3.03;;;;;;;;;;5000560;28;20026;-81
2023/12/06 08:19:42;;;;;;;4.90;2.78;;;;;;;;;;5001799;28;20046;-81
2023/12/06 08:22:08;;;;;;;7.35;4.00;;;;;;;;;;5001594;28;20037;-81
2023/12/06 08:24:34;;;;;;;7.45;3.42;;;;;;;;;;5002400;28;20038;-81
2023/12/06 08:27:00;;;;;;;7.20;3.88;;;;;;;;;;5004191;28;20158;-80
2023/12/06 08:29:26;;;;;;;4.43;3.08;;;;;;;;;;5002532;28;20101;-81
2023/12/06 08:31:52;;;;;;;6.25;3.58;;;;;;;;;;5004218;28;20642;-81
2023/12/06 08:34:17;;;;;;;4.25;2.50;;;;;;;;;;5002453;28;20047;-80
2023/12/06 08:36:43;;;;;;;6.68;3.08;;;;;;;;;;5000172;28;20644;-81
2023/12/06 08:39:09;;;;;;;7.40;3.92;;;;;;;;;;5005673;28;20026;-81
2023/12/06 08:41:35;;;;;;;4.65;2.75;;;;;;;;;;5004794;28;20030;-81
2023/12/06 08:44:01;;;;;;;4.30;2.65;;;;;;;;;;5004220;28;20034;-82
2023/12/06 08:46:27;;;;;;;5.50;3.10;;;;;;;;;;4987120;28;20025;-81
2023/12/06 08:48:54;;;;;;;7.28;3.22;;;;;;;;;;5002446;28;20110;-81
2023/12/06 08:51:20;;;;;;;9.00;4.38;;;;;;;;;;5003411;28;20018;-81
2023/12/06 08:53:45;;;;;;;6.88;3.45;;;;;;;;;;5001271;28;20033;-80
2023/12/06 08:56:13;;;;;;;5.75;3.40;;;;;;;;;;5001893;28;20044;-80
2023/12/06 08:58:40;;;;;;;6.95;3.42;;;;;;;;;;4999812;28;20046;-81
2023/12/06 09:01:05;;;;;;;5.28;2.78;;;;;;;;;;4995441;28;20061;-80
2023/12/06 09:03:31;;;;;;;6.55;3.40;;;;;;;;;;5006378;28;20022;-81
2023/12/06 09:05:57;;;;;;;6.35;3.38;;;;;;;;;;5005204;28;20030;-81
2023/12/06 09:08:23;;;;;;;9.13;3.25;;;;;;;;;;4986878;28;20106;-81
2023/12/06 09:10:49;;;;;;;6.40;3.30;;;;;;;;;;4986714;28;20061;-80
2023/12/06 09:13:16;;;;;;;5.75;3.50;;;;;;;;;;5003609;28;20033;-80
2023/12/06 09:15:42;;;;;;;5.28;2.90;;;;;;;;;;5000533;28;20045;-80
2023/12/06 09:18:08;;;;;;;6.97;3.60;;;;;;;;;;5000679;28;20477;-81
2023/12/06 09:20:34;;;;;;;9.05;4.35;;;;;;;;;;5004340;28;20044;-80
2023/12/06 09:23:00;;;;;;;7.18;3.20;;;;;;;;;;4999485;28;20062;-80
2023/12/06 09:25:26;;;;;;;6.82;3.75;;;;;;;;;;5006184;28;20398;-81
2023/12/06 09:27:52;;;;;;;6.03;3.08;;;;;;;;;;5003766;28;20086;-80
2023/12/06 09:30:18;;;;;;;5.90;3.15;;;;;;;;;;5002197;28;20027;-80
2023/12/06 09:32:45;;;;;;;6.32;3.38;;;;;;;;;;5004487;28;20080;-80
2023/12/06 09:35:11;;;;;;;4.88;3.17;;;;;;;;;;5003113;28;20031;-80
2023/12/06 09:37:38;;;;;;;5.72;2.60;;;;;;;;;;5005390;28;20073;-80
2023/12/06 09:40:04;;;;;;;4.68;3.15;;;;;;;;;;5004954;28;20030;-80
2023/12/06 09:42:32;;;;;;;5.43;2.22;;;;;;;;;;5004991;28;20026;-80
2023/12/06 09:45:01;;;;;;;3.53;2.03;;;;;;;;;;5004031;28;20073;-80
2023/12/06 09:47:28;;;;;;;3.85;1.83;;;5.40;99.90;;;;;;5009420;28;20030;-80
2023/12/06 09:49:54;;;;;;;5.35;1.95;;;;;;;;;;5012664;28;20027;-80
2023/12/06 09:52:21;;;;;;;3.80;1.75;;;;;;;;;;4981845;28;20050;-81
2023/12/06 09:54:51;;;;;;;3.03;1.33;;;5.20;99.90;;;;;;5004887;28;20069;-81
2023/12/06 09:57:17;;;;;;;2.45;1.48;;;;;;;;;;5003998;28;20034;-80
2023/12/06 09:59:43;;;;;;;1.27;0.80;;;;;;;;;;5006732;28;20038;-80
2023/12/06 10:02:10;;;;;;;2.58;1.20;;;;;;;;;;4989926;28;20117;-80
2023/12/06 10:04:36;;;;;;;1.88;0.70;;;;;;;;;;5006539;28;20222;-80
2023/12/06 10:07:02;;;;;;;1.67;1.00;;;;;;;;;;5007244;28;20264;-80
2023/12/06 10:09:28;;;;;;;2.45;1.10;;;;;;;;;;5007821;28;20030;-80
2023/12/06 10:12:05;;;;;;;2.95;1.52;;;;;;;;;;5007265;28;20034;-81
2023/12/06 10:14:31;;;;;;;3.28;1.42;;;;;;;;;;5004186;28;20027;-81
2023/12/06 10:16:57;;;;;;;7.47;2.53;;;;;;;;;;5002294;28;20032;-80
2023/12/06 10:19:23;;;;;;;3.30;1.80;;;;;;;;;;5003983;28;20121;-80
2023/12/06 10:21:50;;;;;;;15.27;3.50;;;;;;;;;;5004294;28;20512;-80
2023/12/06 10:24:16;;;;;;;56.40;9.45;;;;;;;;;;4985526;28;20266;-80
2023/12/06 10:26:42;;;;;;;7.85;2.78;;;;;;;;;;5002877;28;20082;-80
2023/12/06 10:29:08;;;;;;;12.40;1.92;;;;;;;;;;5003825;28;20031;-80
2023/12/06 10:31:45;;;;;;;4.00;2.00;;;4.50;99.90;;;;;;5003405;28;20489;-80
2023/12/06 10:34:11;;;;;;;4.45;2.28;;;;;;;;;;5004993;28;20037;-80
2023/12/06 10:36:37;;;;;;;4.20;1.98;;;;;;;;;;4998161;28;20030;-79
2023/12/06 10:39:10;;;;;;;4.55;1.85;;;;;;;;;;5000367;28;20057;-81
2023/12/06 10:41:36;;;;;;;4.18;1.95;;;;;;;;;;5005525;28;20038;-81
2023/12/06 10:44:03;;;;;;;3.92;2.55;;;;;;;;;;5002955;28;20029;-80
2023/12/06 10:46:30;;;;;;;4.30;2.10;;;;;;;;;;4988372;28;20030;-81
2023/12/06 10:48:59;;;;;;;6.47;3.22;;;;;;;;;;5004461;28;20026;-81
2023/12/06 10:51:25;;;;;;;4.53;2.15;;;;;;;;;;5006977;28;20034;-80
2023/12/06 10:53:52;;;;;;;2.92;1.60;;;;;;;;;;5003625;28;20037;-80
2023/12/06 10:56:19;;;;;;;4.82;2.88;;;;;;;;;;5005634;28;20030;-80
2023/12/06 10:58:46;;;;;;;6.82;3.40;;;;;;;;;;4979388;28;20030;-80
2023/12/06 11:01:13;;;;;;;28.80;4.43;;;;;;;;;;4995525;28;20019;-80
2023/12/06 11:03:39;;;;;;;5.93;3.50;;;;;;;;;;4997049;28;20489;-81
2023/12/06 11:06:29;;;;;;;6.53;3.28;;;4.40;99.90;;;;;;5002159;28;20018;-80
2023/12/06 11:09:04;;;;;;;7.03;3.40;;;;;;;;;;5001368;28;20041;-80
2023/12/06 11:11:42;;;;;;;5.80;3.10;;;;;;;;;;5010049;28;20014;-81
2023/12/06 11:14:21;;;;;;;21.58;5.10;;;;;;;;;;5009164;28;20041;-81
2023/12/06 11:16:47;;;;;;;7.03;3.58;;;;;;;;;;5002790;28;20046;-81
2023/12/06 11:19:14;;;;;;;6.97;4.00;;;;;;;;;;5007400;28;20044;-80
2023/12/06 11:21:40;;;;;;;24.90;5.35;;;;;;;;;;5004443;28;20033;-81
2023/12/06 11:24:10;;;;;;;7.82;3.25;;;;;;;;;;5000569;28;20010;-80
2023/12/06 11:26:36;;;;;;;6.88;3.45;;;;;;;;;;5001119;28;20089;-81
2023/12/06 11:29:03;;;;;;;29.52;4.68;;;;;;;;;;5002472;28;20540;-79
2023/12/06 11:31:37;;;;;;;9.82;4.70;;;;;;;;;;4994846;28;20050;-79
2023/12/06 11:34:05;;;;;;;6.95;4.05;;;;;;;;;;4996260;28;20034;-80
2023/12/06 11:36:31;;;;;;;11.70;4.53;;;;;;;;;;4997951;28;20034;-79
2023/12/06 11:38:57;;;;;;;13.23;4.30;;;;;;;;;;5001072;28;20042;-80
2023/12/06 11:41:23;;;;;;;6.65;2.80;;;;;;;;;;4998780;28;20503;-80
2023/12/06 11:43:50;;;;;;;22.17;5.25;;;;;;;;;;4997582;28;20425;-82
2023/12/06 11:46:16;;;;;;;9.13;4.68;;;;;;;;;;4997674;28;20026;-80
2023/12/06 11:48:44;;;;;;;33.83;8.05;;;4.10;99.90;;;;;;4996846;28;20027;-80
2023/12/06 11:51:18;;;;;;;7.65;3.22;;;;;;;;;;5000257;28;20287;-81
2023/12/06 11:53:44;;;;;;;10.73;4.07;;;;;;;;;;4993747;28;20504;-80
2023/12/06 11:56:10;;;;;;;5.22;3.05;;;;;;;;;;4991979;28;20033;-80
2023/12/06 11:58:36;;;;;;;8.20;3.72;;;;;;;;;;4989365;28;20034;-80
2023/12/06 12:01:02;;;;;;;5.70;3.00;;;;;;;;;;4983659;28;20045;-79
2023/12/06 12:03:30;;;;;;;4.95;2.90;;;;;;;;;;4994377;28;20044;-80
2023/12/06 12:05:57;;;;;;;6.18;3.67;;;;;;;;;;4987831;28;20512;-79
2023/12/06 12:08:24;;;;;;;5.25;3.05;;;;;;;;;;4976059;28;20023;-80
2023/12/06 12:10:50;;;;;;;6.60;3.92;;;;;;;;;;4987659;28;20101;-79
2023/12/06 12:13:18;;;;;;;6.72;4.03;;;;;;;;;;4983183;28;20481;-79
2023/12/06 12:16:01;;;;;;;6.35;3.83;;;4.30;99.90;;;;;;4984298;28;20045;-80
2023/12/06 12:18:27;;;;;;;8.10;4.15;;;;;;;;;;4984704;28;20047;-79
2023/12/06 12:20:53;;;;;;;6.45;3.63;;;;;;;;;;4978441;28;20304;-79
2023/12/06 12:23:19;;;;;;;7.40;3.47;;;;;;;;;;4993476;28;20285;-80
2023/12/06 12:25:46;;;;;;;8.50;3.55;;;;;;;;;;4991178;28;20058;-80
2023/12/06 12:28:15;;;;;;;7.00;3.53;;;;;;;;;;4990024;28;20022;-80
2023/12/06 12:30:41;;;;;;;8.05;4.32;;;;;;;;;;4988228;28;20374;-81
2023/12/06 12:33:07;;;;;;;6.20;4.22;;;;;;;;;;5001643;28;20053;-81
2023/12/06 12:35:33;;;;;;;9.52;5.00;;;;;;;;;;5000841;28;20037;-82
2023/12/06 12:37:59;;;;;;;6.40;3.75;;;;;;;;;;5001875;28;20480;-82
2023/12/06 12:40:25;;;;;;;6.45;3.15;;;;;;;;;;5002426;28;20031;-81
2023/12/06 12:42:51;;;;;;;9.43;5.07;;;;;;;;;;5004237;28;20030;-80
2023/12/06 12:45:18;;;;;;;9.30;4.65;;;;;;;;;;5001224;28;20056;-81
2023/12/06 12:47:44;;;;;;;15.77;7.38;;;;;;;;;;5004061;28;20576;-81
2023/12/06 12:50:10;;;;;;;10.68;5.47;;;;;;;;;;5006060;28;20021;-81
2023/12/06 12:52:40;;;;;;;7.88;4.40;;;;;;;;;;5003313;28;20039;-82
2023/12/06 12:55:06;;;;;;;17.50;7.10;;;;;;;;;;5004028;28;20030;-81
2023/12/06 12:57:36;;;;;;;7.95;4.53;;;;;;;;;;5008712;28;20034;-80
2023/12/06 13:00:03;;;;;;;10.68;5.45;;;3.30;99.90;;;;;;5001074;28;20042;-81
2023/12/06 13:02:29;;;;;;;8.40;4.28;;;;;;;;;;4988736;28;20049;-81
2023/12/06 13:04:57;;;;;;;5.78;3.85;;;;;;;;;;5002057;28;20049;-81
2023/12/06 13:07:22;;;;;;;13.13;5.75;;;;;;;;;;5002969;28;20027;-81
2023/12/06 13:09:49;;;;;;;6.28;3.42;;;;;;;;;;5000914;28;20104;-81
2023/12/06 13:12:15;;;;;;;11.75;4.95;;;;;;;;;;5002358;28;20105;-81
2023/12/06 13:14:40;;;;;;;9.48;4.45;;;;;;;;;;4996516;28;20080;-82
2023/12/06 13:17:07;;;;;;;7.07;3.55;;;;;;;;;;5000500;28;20045;-82
2023/12/06 13:19:33;;;;;;;8.27;4.47;;;;;;;;;;5008409;28;20026;-82
2023/12/06 13:21:59;;;;;;;6.00;3.03;;;;;;;;;;5007079;28;20500;-81
2023/12/06 13:24:26;;;;;;;7.25;4.22;;;;;;;;;;5009534;28;20030;-80
2023/12/06 13:26:52;;;;;;;6.78;3.95;;;;;;;;;;5007943;28;20030;-81
2023/12/06 13:29:18;;;;;;;7.30;3.88;;;;;;;;;;4986757;28;20126;-80
2023/12/06 13:31:45;;;;;;;9.38;5.00;;;;;;;;;;5005849;28;20033;-80
2023/12/06 13:34:11;;;;;;;7.25;3.50;;;;;;;;;;5011727;28;20030;-80
2023/12/06 13:36:38;;;;;;;6.82;3.58;;;;;;;;;;5015232;28;20011;-80
2023/12/06 13:39:05;;;;;;;13.48;7.15;;;;;;;;;;4989517;28;20508;-81
2023/12/06 13:41:31;;;;;;;12.07;6.13;;;;;;;;;;5004558;28;20150;-79
2023/12/06 13:43:57;;;;;;;10.50;4.68;;;;;;;;;;5003174;28;20046;-81
2023/12/06 13:46:23;;;;;;;8.18;4.88;;;;;;;;;;5003213;28;20233;-80
2023/12/06 13:48:49;;;;;;;13.95;6.80;;;;;;;;;;5006723;28;20034;-79
2023/12/06 13:51:15;;;;;;;10.02;4.53;;;;;;;;;;5010301;28;20049;-80
2023/12/06 13:53:41;;;;;;;10.32;5.00;;;;;;;;;;5007636;28;20050;-80
2023/12/06 13:56:07;;;;;;;8.63;4.55;;;;;;;;;;4992063;28;23065;-80
2023/12/06 13:58:33;;;;;;;9.07;5.13;;;;;;;;;;5001881;28;20249;-81
2023/12/06 14:00:59;;;;;;;10.60;4.85;;;;;;;;;;5003927;28;20289;-81
2023/12/06 14:03:27;;;;;;;7.90;4.55;;;;;;;;;;4993411;28;20026;-81
2023/12/06 14:05:53;;;;;;;13.23;5.78;;;;;;;;;;5003692;28;20117;-79
2023/12/06 14:08:19;;;;;;;9.98;5.32;;;;;;;;;;5001772;28;20117;-78
2023/12/06 14:10:45;;;;;;;13.82;5.57;;;;;;;;;;5000821;28;20392;-79
2023/12/06 14:13:11;;;;;;;16.85;7.15;;;;;;;;;;5006052;28;20456;-80
2023/12/06 14:15:37;;;;;;;26.23;8.45;;;;;;;;;;5001504;28;20037;-81
2023/12/06 14:18:03;;;;;;;12.98;6.70;;;;;;;;;;5007281;28;20035;-80
2023/12/06 14:20:29;;;;;;;21.08;8.55;;;;;;;;;;5007511;28;20038;-80
2023/12/06 14:22:55;;;;;;;14.95;6.93;;;;;;;;;;5008716;28;20041;-81
2023/12/06 14:25:21;;;;;;;14.07;7.28;;;;;;;;;;5005379;28;20259;-81
2023/12/06 14:27:47;;;;;;;27.05;9.10;;;;;;;;;;4997157;28;20026;-80
2023/12/06 14:30:14;;;;;;;21.63;7.53;;;;;;;;;;4993145;28;21694;-80
2023/12/06 14:32:40;;;;;;;12.88;7.10;;;;;;;;;;4992269;28;20042;-80
2023/12/06 14:35:11;;;;;;;19.05;7.60;;;;;;;;;;5000579;28;20042;-81